Intercessor d'Assalto
| Nome | Intercessor d'Assalto |
|---|---|
| Predefinito | Assault Intercessor |
| Tipo | Creatura — guerriero astartes |
| Descrizione | Attacco improvviso, minacciare Spada a Catena — Ogniqualvolta una creatura controllata da un avversario muore, quel giocatore perde 2 punti vita. |
| Gusto | Un nemico senza onore è un nemico già sconfitto. |
| Artista | Steve Argyle |
| Espansione | Comandante di Warhammer 40.000 #104★ |
| Carta da parati | |
| Immagine |
Di Intercessor d'Assalto
Intercessor d'Assalto, Creatura — guerriero astartes, progettato da Steve Argyle rilasciato per la prima volta settembre 2022 in redazione Warhammer 40,000 Commander ed è stato stampato esattamente in 2 forme diverse. Attualmente viene venduto al prezzo più basso di € 1,39.
Questa carta Assault Intercessor sarebbe perfetta per un mazzo aggressivo nero-bianco focalizzato sulla rimozione delle creature e sul causare danni diretti all'avversario. L'abilità Chainsword aggiunge un tocco piacevole di perdita di vita per il tuo avversario, rendendola una minaccia versatile sul campo di battaglia. Anche se potrebbero esserci carte più potenti là fuori, la combinazione di Primo attacco, minaccia e potenziale di perdita di vita di Assault Intercessor la rendono una scelta solida per i mazzi che cercano di esercitare pressione precoce e controllare il campo di gioco. Merita sicuramente di essere presa in considerazione per giocare nella strategia giusta.
Dove comprare
![]() | TCG Player | 8 uni.
| € 1,38 | visita il negozio |
![]() | Card Kingdom | 13 uni.
| € 1,70 | visita il negozio |
![]() | Ebay.com | visita il negozio | ||
![]() | Cardkingdom | visita il negozio | ||
![]() | Printing proxies | $ 0.75 | visita il negozio |
*Questo sito contiene link di affiliazione per i quali potremmo ricevere un compenso
Gruppo
avviso di prezzo ?
Avvisami quando arriva il prezzo
Storico dell'andamento dei prezzi

Storico dei prezzi
| Data | Prezzo minimo | Prezzo medio | Decks |
|---|---|---|---|
| 2024-09-07 | 0.38 EUR | 0.47 EUR | 0 |
| 2024-09-09 | 0.39 EUR | 0.48 EUR | 1 |
| 2024-09-16 | 0.37 EUR | 0.51 EUR | 0 |
| 2024-09-23 | 0.35 EUR | 0.50 EUR | 0 |
| 2024-09-30 | 0.39 EUR | 0.53 EUR | 2 |
| 2024-10-07 | 0.42 EUR | 0.58 EUR | 0 |
| 2024-10-14 | 0.47 EUR | 0.67 EUR | 0 |
| 2024-10-21 | 0.61 EUR | 0.71 EUR | 1 |
| 2024-10-28 | 0.59 EUR | 0.65 EUR | 0 |
| 2024-11-06 | 0.62 EUR | 0.93 EUR | 0 |
| 2024-11-11 | 0.67 EUR | 0.96 EUR | 1 |
| 2024-11-18 | 0.72 EUR | 0.84 EUR | 1 |
| 2024-11-25 | 0.68 EUR | 0.82 EUR | 0 |
| 2024-12-02 | 0.81 EUR | 0.97 EUR | 0 |
| 2024-12-09 | 0.55 EUR | 0.93 EUR | 0 |
| 2024-12-19 | 0.55 EUR | 0.93 EUR | 0 |
| 2024-12-23 | 0.55 EUR | 0.93 EUR | 0 |
| 2024-12-30 | 0.55 EUR | 0.93 EUR | 0 |
| 2025-01-01 | 0.55 EUR | 0.93 EUR | 0 |
| 2025-01-06 | 0.55 EUR | 0.93 EUR | 0 |
| 2025-01-13 | 0.55 EUR | 0.93 EUR | 0 |
| 2025-01-20 | 0.55 EUR | 0.93 EUR | 0 |
| 2025-01-27 | 0.55 EUR | 0.93 EUR | 1 |
| 2025-02-03 | 0.55 EUR | 0.93 EUR | 0 |
| 2025-02-10 | 0.55 EUR | 0.93 EUR | 1 |
| 2025-04-27 | 0.76 EUR | 0.84 EUR | 0 |
| 2025-04-28 | 0.75 EUR | 0.84 EUR | 0 |
| 2025-05-06 | 0.75 EUR | 0.87 EUR | 0 |
| 2025-05-12 | 0.75 EUR | 0.91 EUR | 0 |
| 2025-05-19 | 0.66 EUR | 0.88 EUR | 0 |
| 2025-05-28 | 1.07 EUR | 1.07 EUR | 0 |
| 2025-06-03 | 1.03 EUR | 1.11 EUR | 0 |
| 2025-06-10 | 0.92 EUR | 1.10 EUR | 0 |
| 2025-06-17 | 1.22 EUR | 1.23 EUR | 0 |
| 2025-06-23 | 0.91 EUR | 0.95 EUR | 0 |
| 2025-07-01 | 0.74 EUR | 0.82 EUR | 0 |
| 2025-07-08 | 0.77 EUR | 0.89 EUR | 0 |
| 2025-07-15 | 0.69 EUR | 0.82 EUR | 0 |
| 2025-07-22 | 0.69 EUR | 0.69 EUR | 0 |
| 2025-07-29 | 0.72 EUR | 0.96 EUR | 0 |
| 2025-08-05 | 0.73 EUR | 0.97 EUR | 0 |
| 2025-08-12 | 0.72 EUR | 1.04 EUR | 0 |
| 2025-08-18 | 0.69 EUR | 1.12 EUR | 0 |
| 2025-08-25 | 0.67 EUR | 0.97 EUR | 0 |
| 2025-09-02 | 0.70 EUR | 1.26 EUR | 0 |
| 2025-09-09 | 0.70 EUR | 1.26 EUR | 0 |
| 2025-09-15 | 0.70 EUR | 1.26 EUR | 1 |
| 2025-09-23 | 0.70 EUR | 1.26 EUR | 0 |
| 2025-09-29 | 0.70 EUR | 1.26 EUR | 0 |
| 2025-10-06 | 0.70 EUR | 1.26 EUR | 0 |
| 2025-10-13 | 0.70 EUR | 1.26 EUR | 0 |
| 2025-10-20 | 0.70 EUR | 1.26 EUR | 0 |
| 2025-10-27 | 0.70 EUR | 1.26 EUR | 0 |
| 2025-11-03 | 0.70 EUR | 1.26 EUR | 0 |
| 2025-11-10 | 0.70 EUR | 1.26 EUR | 0 |
| 2025-11-18 | 0.70 EUR | 1.26 EUR | 0 |
| 2025-11-24 | 0.70 EUR | 1.26 EUR | 0 |
| 2025-12-03 | 0.70 EUR | 1.26 EUR | 1 |
| 2025-12-08 | 0.70 EUR | 1.26 EUR | 0 |
| 2025-12-15 | 0.70 EUR | 1.26 EUR | 0 |
| 2025-12-22 | 0.70 EUR | 1.26 EUR | 0 |
| 2025-12-29 | 0.70 EUR | 1.26 EUR | 0 |
| 2026-01-01 | 0.70 EUR | 1.26 EUR | 0 |
| 2026-01-05 | 0.70 EUR | 1.26 EUR | 0 |
| 2026-01-13 | 0.70 EUR | 1.26 EUR | 0 |
| 2026-01-20 | 0.70 EUR | 1.26 EUR | 0 |
| 2026-01-26 | 0.70 EUR | 1.26 EUR | 0 |
| 2026-02-02 | 0.70 EUR | 1.26 EUR | 0 |
| 2026-02-09 | 0.70 EUR | 1.26 EUR | 0 |
| 2026-02-16 | 0.70 EUR | 1.26 EUR | 0 |
| 2026-02-23 | 0.70 EUR | 1.26 EUR | 0 |
| 2026-03-02 | 0.70 EUR | 1.26 EUR | 0 |
| 2026-03-10 | 0.70 EUR | 1.26 EUR | 0 |
| 2026-03-16 | 0.70 EUR | 1.26 EUR | 0 |
| 2026-04-02 | 0.70 EUR | 1.26 EUR | 0 |
| 2026-04-07 | 0.70 EUR | 1.26 EUR | 0 |
| 2026-04-14 | 0.70 EUR | 1.26 EUR | 0 |
| 2026-04-23 | 0.70 EUR | 1.26 EUR | 0 |
| 2026-04-30 | 0.70 EUR | 1.26 EUR | 0 |
| 2026-05-05 | 0.70 EUR | 1.26 EUR | 0 |
| 2026-05-14 | 0.70 EUR | 1.26 EUR | 0 |
| 2026-05-20 | 0.70 EUR | 1.26 EUR | 0 |
| 2026-05-25 | 0.70 EUR | 1.26 EUR | 0 |
| 2026-06-01 | 0.70 EUR | 1.26 EUR | 0 |
| 2026-06-08 | 0.70 EUR | 1.26 EUR | 0 |
| 2026-06-15 | 0.70 EUR | 1.26 EUR | 0 |
| 2026-06-23 | 0.70 EUR | 1.26 EUR | 0 |
| 2026-06-29 | 0.70 EUR | 1.26 EUR | 0 |
| 2026-07-06 | 0.95 EUR | 1.35 EUR | 0 |
| 2026-07-13 | 1.39 EUR | 1.56 EUR | 0 |
| 2026-07-20 | 1.25 EUR | 1.48 EUR | 0 |
| 2026-07-27 | 1.56 EUR | 1.64 EUR | 0 |
| 2026-08-03 | 1.63 EUR | 1.76 EUR | 0 |
| 2026-08-10 | 1.62 EUR | 1.79 EUR | 0 |
| 2026-08-17 | 1.58 EUR | 1.79 EUR | 0 |
| 2026-08-24 | 1.65 EUR | 1.72 EUR | 0 |
| 2026-09-01 | 1.50 EUR | 1.61 EUR | 0 |
Domande frequenti su Intercessor d'Assalto
Che tipo di carta è Intercessor d'Assalto?
Intercessor d'Assalto è Creatura — guerriero astartes carta inserita Magic: the Gathering MTG.
Qual è l'effetto della carta Intercessor d'Assalto?
Attacco improvviso, minacciare Spada a Catena — Ogniqualvolta una creatura controllata da un avversario muore, quel giocatore perde 2 punti vita.
Qual è il prezzo della carta Intercessor d'Assalto?
Intercessor d'Assalto attualmente inizia alle € 1,39. Visualizza i prezzi in tempo reale di più venditori nella sezione Dove acquistare sopra.
Qual è il set originale della carta Intercessor d'Assalto?
Intercessor d'Assalto è stato rilasciato per la prima volta nel set Warhammer 40,000 Commander, illustrato da Steve Argyle.
Qual è la legalità della carta Intercessor d'Assalto?
La legalità dipende dal formato del torneo: Intercessor d'Assalto può essere legale in alcuni formati e vietato o limitato in altri. Consulta la ripartizione completa per formato nella sezione Legalità sopra.






Reazioni
0
0 Commenti
Diventa il primo a commentare